Orbital elements of COSMOS 970 DEB
| Launched | 20 December 1977 |
| Flight ended | – |
| Launch site | Tyuratam Missile and Space Center, Kazakhstan (Also known as Baikonur Cosmodrome) |
| Owner | Commonwealth of Independent States (former USSR) |
| NORAD ID | 65005 |
| Date fetched |
Epoch osculation |
Inc. [°] |
Ecc. | RA asc node [hr] |
Arg Peri. [°] |
Mean anom [°] |
Mean motion [rev/day] |
Abs. mag |
| Date fetched |
Epoch osculation |
Inc. [°] |
Ecc. | RA asc node [hr] |
Arg Peri. [°] |
Mean anom [°] |
Mean motion [rev/day] |
Abs. mag |
| 2026 May 03 17:57 | 2026 Apr 30 00:28:08 | 65.8884 | 0.01814 | 15.7283 | 225.7807 | 132.8244 | 13.79376 | – |
| 2026 May 02 17:57 | 2026 Apr 30 00:28:08 | 65.8884 | 0.01814 | 15.7283 | 225.7807 | 132.8244 | 13.79376 | – |
| 2026 May 01 17:56 | 2026 Apr 30 00:28:08 | 65.8884 | 0.01814 | 15.7283 | 225.7807 | 132.8244 | 13.79376 | – |
| 2026 Apr 30 17:56 | 2026 Apr 30 00:28:08 | 65.8884 | 0.01814 | 15.7283 | 225.7807 | 132.8244 | 13.79376 | – |
| 2026 Apr 29 17:57 | 2026 Apr 23 15:20:24 | 65.8881 | 0.01816 | 16.7853 | 228.8766 | 132.8244 | 13.79376 | – |
| 2026 Apr 28 17:56 | 2026 Apr 23 15:20:24 | 65.8881 | 0.01816 | 16.7853 | 228.8766 | 132.8244 | 13.79376 | – |
| 2026 Apr 27 17:58 | 2026 Apr 23 15:20:24 | 65.8881 | 0.01816 | 16.7853 | 228.8766 | 132.8244 | 13.79376 | – |
| 2026 Apr 26 17:58 | 2026 Apr 23 15:20:24 | 65.8881 | 0.01816 | 16.7853 | 228.8766 | 132.8244 | 13.79376 | – |
| 2026 Apr 25 17:58 | 2026 Apr 23 15:20:24 | 65.8881 | 0.01816 | 16.7853 | 228.8766 | 132.8244 | 13.79376 | – |
| 2026 Apr 24 17:59 | 2026 Apr 23 15:20:24 | 65.8881 | 0.01816 | 16.7853 | 228.8766 | 132.8244 | 13.79376 | – |
| 2026 Apr 23 17:57 | 2026 Apr 19 03:27:12 | 65.8877 | 0.01818 | 17.5301 | 231.0641 | 132.8244 | 13.79376 | – |
| 2026 Apr 22 17:57 | 2026 Apr 19 03:27:12 | 65.8877 | 0.01818 | 17.5301 | 231.0641 | 132.8244 | 13.79376 | – |
| 2026 Apr 21 17:57 | 2026 Apr 19 03:27:12 | 65.8877 | 0.01818 | 17.5301 | 231.0641 | 132.8244 | 13.79376 | – |
| 2026 Apr 20 17:57 | 2026 Apr 19 03:27:12 | 65.8877 | 0.01818 | 17.5301 | 231.0641 | 132.8244 | 13.79376 | – |
| 2026 Apr 19 17:58 | 2026 Apr 19 03:27:12 | 65.8877 | 0.01818 | 17.5301 | 231.0641 | 132.8244 | 13.79376 | – |
| 2026 Apr 18 17:56 | 2026 Apr 10 05:25:12 | 65.8876 | 0.01822 | 19.0078 | 235.4060 | 132.8244 | 13.79376 | – |
| 2026 Apr 16 17:57 | 2026 Apr 10 05:25:12 | 65.8876 | 0.01822 | 19.0078 | 235.4060 | 132.8244 | 13.79376 | – |
| 2026 Apr 14 17:57 | 2026 Apr 10 05:25:12 | 65.8876 | 0.01822 | 19.0078 | 235.4060 | 132.8244 | 13.79376 | – |
| 2026 Apr 13 17:57 | 2026 Apr 10 05:25:12 | 65.8876 | 0.01822 | 19.0078 | 235.4060 | 132.8244 | 13.79376 | – |
| 2026 Apr 12 17:57 | 2026 Apr 07 06:04:32 | 65.8875 | 0.01823 | 19.5003 | 236.8530 | 132.8244 | 13.79376 | – |
| 2026 Apr 11 17:57 | 2026 Apr 07 06:04:32 | 65.8875 | 0.01823 | 19.5003 | 236.8530 | 132.8244 | 13.79376 | – |
| 2026 Apr 10 17:58 | 2026 Apr 07 06:04:32 | 65.8875 | 0.01823 | 19.5003 | 236.8530 | 132.8244 | 13.79376 | – |
| 2026 Apr 09 18:01 | 2026 Apr 07 06:04:32 | 65.8875 | 0.01823 | 19.5003 | 236.8530 | 132.8244 | 13.79376 | – |
| 2026 Apr 08 17:57 | 2026 Apr 07 06:04:32 | 65.8875 | 0.01823 | 19.5003 | 236.8530 | 132.8244 | 13.79376 | – |
| 2026 Apr 07 17:57 | 2026 Mar 30 20:35:02 | 65.8890 | 0.01827 | 20.7256 | 240.4676 | 132.8244 | 13.79376 | – |
| 2026 Apr 06 17:57 | 2026 Mar 30 20:35:02 | 65.8890 | 0.01827 | 20.7256 | 240.4676 | 132.8244 | 13.79376 | – |